Menu Close Menu
Station Historical Data
Daily Summary for April 22, 2017 Units:  English    Metric   Both
« Previous Day
Next Day »
Daily Weekly Monthly Yearly Custom
  High: Low: Average:
Temperature: 83.4 °F 62.4 °F 72.1 °F
Dew Point: 60.4 °F 53.5 °F 57.4 °F
Humidity: 88% 36% 62%
Wind Speed: 1.0mph 0.0mph 0.1mph
Wind Gust: 7.0mph - -
Wind- - West
Pressure: 29.95 in 29.80 in -
Precipitation: 0.05 in    
Historical Graphs
 
 
Tabular Data for April 22, 2017
Time Temperature Dew Point Pressure Wind Wind Speed Wind Gust Humidity Rainfall Rate (Hourly) solar Conditions
00:00 67.9 °F 58.2 °F 29.92 in Calm     71% 0.00 in WeatherDisplay:10.37 W/m2 SCT
00:15 67.5 °F 58.2 °F 29.92 in Calm     72% 0.00 in WeatherDisplay:10.37 W/m2 SCT
00:30 67.0 °F 58.1 °F 29.92 in Calm     73% 0.00 in WeatherDisplay:10.37 W/m2 SCT
00:45 66.6 °F 58.1 °F 29.92 in Calm     74% 0.00 in WeatherDisplay:10.37 W/m2 SCT
01:00 66.2 °F 58.0 °F 29.92 in Calm     75% 0.00 in WeatherDisplay:10.37 W/m2 SCT
01:15 65.8 °F 57.6 °F 29.92 in Calm     75% 0.00 in WeatherDisplay:10.37 W/m2 SCT
01:30 65.5 °F 57.7 °F 29.92 in Calm     76% 0.00 in WeatherDisplay:10.37 W/m2 SCT
01:45 65.2 °F 57.8 °F 29.91 in Calm     77% 0.00 in WeatherDisplay:10.37 W/m2 SCT
02:00 64.9 °F 57.5 °F 29.91 in Calm     77% 0.00 in WeatherDisplay:10.37 W/m2 SCT
02:15 64.6 °F 57.2 °F 29.90 in Calm     77% 0.00 in WeatherDisplay:10.37 W/m2 SCT
03:00 63.9 °F 56.9 °F 29.89 in Calm     78% 0.00 in WeatherDisplay:10.37 W/m2 SCT
03:15 63.7 °F 57.1 °F 29.88 in Calm     79% 0.00 in WeatherDisplay:10.37 W/m2 SCT
03:30 62.9 °F 56.3 °F 29.88 in Calm     79% 0.00 in WeatherDisplay:10.37 W/m2 SCT
03:45 63.0 °F 56.4 °F 29.88 in Calm     79% 0.00 in WeatherDisplay:10.37 W/m2 SCT
04:00 63.0 °F 56.4 °F 29.88 in Calm     79% 0.00 in WeatherDisplay:10.37 W/m2 SCT
04:15 63.0 °F 56.4 °F 29.88 in Calm     79% 0.00 in WeatherDisplay:10.37 W/m2 SCT
04:30 63.0 °F 56.4 °F 29.87 in Calm     79% 0.00 in WeatherDisplay:10.37 W/m2 SCT
04:45 63.0 °F 56.4 °F 29.88 in Calm     79% 0.00 in WeatherDisplay:10.37 W/m2 SCT
05:00 63.0 °F 56.4 °F 29.88 in Calm     79% 0.00 in WeatherDisplay:10.37 W/m2 SCT
05:15 63.0 °F 56.4 °F 29.88 in Calm     79% 0.00 in WeatherDisplay:10.37 W/m2 SCT
05:30 63.0 °F 56.4 °F 29.88 in Calm     79% 0.00 in WeatherDisplay:10.37 W/m2 SCT
05:45 63.0 °F 56.4 °F 29.88 in Calm     79% 0.00 in WeatherDisplay:10.37 W/m2 SCT
06:15 63.0 °F 56.4 °F 29.89 in Calm     79% 0.00 in WeatherDisplay:10.37 W/m2 SCT
06:30 63.0 °F 56.4 °F 29.89 in Calm     79% 0.00 in WeatherDisplay:10.37 W/m2 SCT
06:45 63.0 °F 56.4 °F 29.89 in Calm     79% 0.00 in WeatherDisplay:10.37 W/m2 SCT
07:00 63.0 °F 56.4 °F 29.90 in Calm     79% 0.00 in WeatherDisplay:10.37 W/m2 SCT
07:15 63.0 °F 56.4 °F 29.90 in Calm     79% 0.00 in WeatherDisplay:10.37 W/m2 SCT
07:30 63.0 °F 56.4 °F 29.91 in Calm     79% 0.00 in WeatherDisplay:10.37 W/m2 SCT
07:45 63.0 °F 56.4 °F 29.92 in Calm     79% 0.00 in WeatherDisplay:10.37 W/m2 SCT
08:00 62.4 °F 58.1 °F 29.92 in Calm     86% 0.01 in WeatherDisplay:10.37 W/m2 SCT
08:15 63.9 °F 59.0 °F 29.92 in Calm     84% 0.00 in WeatherDisplay:10.37 W/m2 SCT
08:30 65.6 °F 59.3 °F 29.92 in Calm     80% 0.00 in WeatherDisplay:10.37 W/m2 SCT
08:45 67.4 °F 59.6 °F 29.92 in Calm     76% 0.00 in WeatherDisplay:10.37 W/m2 SCT
09:00 69.7 °F 60.2 °F 29.93 in Calm   1.0 mph 72% 0.00 in WeatherDisplay:10.37 W/m2 SCT
09:15 71.2 °F 60.1 °F 29.93 in Calm     68% 0.00 in WeatherDisplay:10.37 W/m2 SCT
09:30 71.8 °F 59.8 °F 29.93 in Calm   2.0 mph 66% 0.00 in WeatherDisplay:10.37 W/m2 SCT
09:45 72.6 °F 59.2 °F 29.94 in Calm   2.0 mph 63% 0.00 in WeatherDisplay:10.37 W/m2 SCT
10:00 74.0 °F 60.2 °F 29.94 in Calm   5.0 mph 62% 0.00 in WeatherDisplay:10.37 W/m2 SCT
10:15 75.8 °F 60.4 °F 29.95 in Calm   5.0 mph 59% 0.00 in WeatherDisplay:10.37 W/m2 SCT
10:30 76.2 °F 60.3 °F 29.95 in Calm   2.0 mph 58% 0.00 in WeatherDisplay:10.37 W/m2 SCT
10:45 76.7 °F 58.8 °F 29.95 in WNW 1.0 mph 3.0 mph 54% 0.00 in WeatherDisplay:10.37 W/m2 SCT
11:00 77.2 °F 58.2 °F 29.95 in Calm   5.0 mph 52% 0.00 in WeatherDisplay:10.37 W/m2 SCT
11:15 78.0 °F 59.0 °F 29.95 in NW 1.0 mph 5.0 mph 52% 0.00 in WeatherDisplay:10.37 W/m2 SCT
11:30 77.4 °F 58.9 °F 29.95 in NNW 1.0 mph 7.0 mph 53% 0.00 in WeatherDisplay:10.37 W/m2 SCT
11:45 77.6 °F 58.0 °F 29.95 in Calm   3.0 mph 51% 0.00 in WeatherDisplay:10.37 W/m2 SCT
12:00 79.1 °F 58.8 °F 29.94 in NNW 1.0 mph 3.0 mph 50% 0.00 in WeatherDisplay:10.37 W/m2 SCT
12:15 78.7 °F 57.4 °F 29.93 in SW 1.0 mph 5.0 mph 48% 0.00 in WeatherDisplay:10.37 W/m2 SCT
12:30 78.6 °F 56.0 °F 29.93 in Calm   3.0 mph 46% 0.00 in WeatherDisplay:10.37 W/m2 SCT
12:45 80.8 °F 54.3 °F 29.92 in SSW 1.0 mph 5.0 mph 40% 0.00 in WeatherDisplay:10.37 W/m2 SCT
13:00 81.2 °F 55.2 °F 29.92 in Calm   3.0 mph 41% 0.00 in WeatherDisplay:10.37 W/m2 SCT
13:15 83.2 °F 55.7 °F 29.91 in Calm   5.0 mph 39% 0.00 in WeatherDisplay:10.37 W/m2 SCT
13:30 83.4 °F 55.1 °F 29.90 in Calm   3.0 mph 38% 0.00 in WeatherDisplay:10.37 W/m2 SCT
13:45 83.2 °F 53.5 °F 29.90 in Calm   3.0 mph 36% 0.00 in WeatherDisplay:10.37 W/m2 SCT
14:00 83.4 °F 55.1 °F 29.89 in Calm   3.0 mph 38% 0.00 in WeatherDisplay:10.37 W/m2 SCT
14:15 83.2 °F 54.9 °F 29.88 in Calm   2.0 mph 38% 0.00 in WeatherDisplay:10.37 W/m2 SCT
14:30 83.1 °F 54.9 °F 29.87 in Calm   6.0 mph 38% 0.00 in WeatherDisplay:10.37 W/m2 SCT
14:45 82.0 °F 54.6 °F 29.87 in NW 1.0 mph 5.0 mph 39% 0.00 in WeatherDisplay:10.37 W/m2 SCT
15:00 81.9 °F 53.8 °F 29.87 in Calm   3.0 mph 38% 0.00 in WeatherDisplay:10.37 W/m2 SCT
15:15 81.9 °F 53.8 °F 29.86 in Calm   3.0 mph 38% 0.00 in WeatherDisplay:10.37 W/m2 SCT
15:30 82.1 °F 56.1 °F 29.86 in Calm   3.0 mph 41% 0.00 in WeatherDisplay:10.37 W/m2 SCT
15:45 81.3 °F 55.4 °F 29.85 in Calm   5.0 mph 41% 0.00 in WeatherDisplay:10.37 W/m2 SCT
16:00 80.9 °F 54.3 °F 29.84 in Calm   3.0 mph 40% 0.00 in WeatherDisplay:10.37 W/m2 SCT
16:15 80.8 °F 56.9 °F 29.83 in Calm   2.0 mph 44% 0.00 in WeatherDisplay:10.37 W/m2 SCT
16:30 80.4 °F 56.5 °F 29.83 in Calm   3.0 mph 44% 0.00 in WeatherDisplay:10.37 W/m2 SCT
16:45 80.2 °F 56.3 °F 29.82 in WNW 1.0 mph 2.0 mph 44% 0.00 in WeatherDisplay:10.37 W/m2 SCT
17:00 80.1 °F 58.0 °F 29.82 in Calm   3.0 mph 47% 0.00 in WeatherDisplay:10.37 W/m2 SCT
17:15 79.9 °F 56.7 °F 29.81 in Calm   1.0 mph 45% 0.00 in WeatherDisplay:10.37 W/m2 SCT
17:30 79.2 °F 56.6 °F 29.81 in Calm   2.0 mph 46% 0.00 in WeatherDisplay:10.37 W/m2 SCT
17:45 79.9 °F 57.9 °F 29.81 in Calm   1.0 mph 47% 0.00 in WeatherDisplay:10.37 W/m2 SCT
18:00 80.4 °F 58.3 °F 29.81 in Calm   1.0 mph 47% 0.00 in WeatherDisplay:10.37 W/m2 SCT
18:15 78.5 °F 57.2 °F 29.81 in Calm     48% 0.00 in WeatherDisplay:10.37 W/m2 SCT
18:30 77.8 °F 58.2 °F 29.80 in Calm     51% 0.00 in WeatherDisplay:10.37 W/m2 SCT
18:45 77.0 °F 57.0 °F 29.80 in Calm   2.0 mph 50% 0.00 in WeatherDisplay:10.37 W/m2 SCT
19:00 76.7 °F 57.7 °F 29.80 in Calm   1.0 mph 52% 0.00 in WeatherDisplay:10.37 W/m2 SCT
19:15 76.4 °F 58.0 °F 29.81 in Calm   5.0 mph 53% 0.00 in WeatherDisplay:10.37 W/m2 SCT
19:30 75.8 °F 57.9 °F 29.81 in Calm   1.0 mph 54% 0.00 in WeatherDisplay:10.37 W/m2 SCT
19:45 74.9 °F 57.7 °F 29.81 in Calm   1.0 mph 55% 0.00 in WeatherDisplay:10.37 W/m2 SCT
20:00 74.2 °F 57.5 °F 29.82 in Calm   2.0 mph 56% 0.00 in WeatherDisplay:10.37 W/m2 SCT
20:15 73.7 °F 58.0 °F 29.83 in Calm     58% 0.00 in WeatherDisplay:10.37 W/m2 SCT
20:30 73.2 °F 58.0 °F 29.84 in Calm     59% 0.00 in WeatherDisplay:10.37 W/m2 SCT
20:45 72.7 °F 58.4 °F 29.84 in Calm     61% 0.00 in WeatherDisplay:10.37 W/m2 SCT
21:00 72.3 °F 58.5 °F 29.84 in Calm     62% 0.00 in WeatherDisplay:10.37 W/m2 SCT
21:15 72.1 °F 58.8 °F 29.83 in Calm     63% 0.00 in WeatherDisplay:10.37 W/m2 SCT
21:30 71.9 °F 58.6 °F 29.83 in Calm     63% 0.00 in WeatherDisplay:10.37 W/m2 SCT
21:45 71.8 °F 59.4 °F 29.84 in Calm     65% 0.00 in WeatherDisplay:10.37 W/m2 SCT
22:00 71.6 °F 59.2 °F 29.85 in Calm     65% 0.00 in WeatherDisplay:10.37 W/m2 SCT
22:15 71.8 °F 59.8 °F 29.86 in Calm     66% 0.00 in WeatherDisplay:10.37 W/m2 SCT
22:30 71.3 °F 58.9 °F 29.86 in Calm     65% 0.00 in WeatherDisplay:10.37 W/m2 SCT
22:45 69.3 °F 60.3 °F 29.87 in SE 1.0 mph 2.0 mph 73% 0.00 in WeatherDisplay:10.37 W/m2 SCT
23:00 66.5 °F 59.1 °F 29.88 in Calm   2.0 mph 77% 0.00 in WeatherDisplay:10.37 W/m2 SCT
23:15 64.2 °F 58.9 °F 29.90 in Calm   2.0 mph 83% 0.02 in WeatherDisplay:10.37 W/m2 SCT
23:30 63.0 °F 59.0 °F 29.89 in Calm   1.0 mph 87% 0.02 in WeatherDisplay:10.37 W/m2 SCT
23:45 62.6 °F 59.0 °F 29.89 in Calm   1.0 mph 88% 0.00 in WeatherDisplay:10.37 W/m2 SCT
Piedmont Bend
Compliments of Weather Underground - 4 mb